Time;durP1;ratioP1;P1;durP2;ratioP2;P2;SDS_P1;SDS_P2;PMS_P1;PMS_P2;Temp;Humidity;BMP_temperature;BMP_pressure;BME280_temperature;BME280_humidity;BME280_pressure;Samples;Min_cycle;Max_cycle;Signal;HPM_P1;HPM_P2
2022/03/30 00:01:49;;;;;;;22.15;9.93;;;10.80;99.90;;;10.51;100.00;96397.97;5013510;28;20048;-73
2022/03/30 00:04:16;;;;;;;20.27;9.20;;;10.80;99.90;;;10.64;100.00;96385.09;5002773;28;20081;-74
2022/03/30 00:06:43;;;;;;;20.83;9.10;;;10.80;99.90;;;10.71;100.00;96386.38;5004690;28;20504;-74
2022/03/30 00:09:10;;;;;;;24.75;9.75;;;10.80;99.90;;;10.53;100.00;96392.69;5006481;28;20137;-74
2022/03/30 00:11:38;;;;;;;18.48;10.50;;;10.80;99.90;;;10.27;100.00;96406.28;4999033;28;20050;-74
2022/03/30 00:14:05;;;;;;;25.48;13.55;;;10.80;99.90;;;9.79;100.00;96415.22;5001662;28;20140;-73
2022/03/30 00:16:34;;;;;;;28.75;15.02;;;10.70;99.90;;;9.62;100.00;96408.38;5001955;28;20141;-74
2022/03/30 00:19:03;;;;;;;31.20;14.73;;;10.60;99.90;;;9.61;100.00;96414.50;4999842;28;20058;-74
2022/03/30 00:21:30;;;;;;;31.52;15.38;;;10.50;99.90;;;9.48;100.00;96416.94;4999244;28;20056;-73
2022/03/30 00:23:57;;;;;;;27.50;14.25;;;10.40;99.90;;;9.51;100.00;96411.63;5003813;28;20046;-73
2022/03/30 00:26:24;;;;;;;26.85;12.27;;;10.30;99.90;;;9.73;100.00;96408.59;5000258;28;20096;-74
2022/03/30 00:28:51;;;;;;;25.55;12.38;;;10.30;99.90;;;9.81;100.00;96418.56;5002836;28;20053;-73
2022/03/30 00:31:19;;;;;;;26.00;14.48;;;10.30;99.90;;;9.80;100.00;96409.09;5002586;28;20085;-73
2022/03/30 00:33:46;;;;;;;29.17;13.60;;;10.30;99.90;;;9.74;100.00;96410.28;4999048;28;20081;-74
2022/03/30 00:36:13;;;;;;;24.48;13.00;;;10.30;99.90;;;9.72;100.00;96408.72;5000076;28;20789;-73
2022/03/30 00:38:40;;;;;;;27.15;12.43;;;10.30;99.90;;;9.70;100.00;96395.84;4999616;28;20132;-73
2022/03/30 00:41:08;;;;;;;25.70;11.63;;;10.20;99.90;;;9.71;100.00;96397.50;4998632;28;20149;-74
2022/03/30 00:43:35;;;;;;;23.05;13.63;;;10.20;99.90;;;9.49;100.00;96392.75;5005957;28;20080;-73
2022/03/30 00:46:02;;;;;;;27.60;14.30;;;10.10;99.90;;;9.38;100.00;96393.34;4997421;28;20134;-73
2022/03/30 00:48:29;;;;;;;20.85;11.55;;;9.90;99.90;;;9.34;100.00;96391.84;4995107;28;20057;-73
2022/03/30 00:50:56;;;;;;;24.70;12.60;;;9.80;99.90;;;9.35;100.00;96387.50;5002072;28;20696;-74
2022/03/30 00:53:23;;;;;;;27.23;16.85;;;9.80;99.90;;;9.34;100.00;96391.00;5005965;28;20144;-73
2022/03/30 00:55:53;;;;;;;19.50;11.95;;;9.80;99.90;;;9.43;100.00;96387.91;4998675;28;20606;-73
2022/03/30 00:58:22;;;;;;;20.77;12.45;;;9.80;99.90;;;9.34;100.00;96383.25;5002197;28;20070;-73
2022/03/30 01:00:49;;;;;;;27.52;14.05;;;9.90;99.90;;;9.28;100.00;96391.34;5003707;28;20049;-76
2022/03/30 01:03:17;;;;;;;30.65;16.65;;;9.80;99.90;;;9.15;100.00;96386.03;5009816;28;20049;-73
2022/03/30 01:05:44;;;;;;;29.23;16.38;;;9.70;99.90;;;9.17;100.00;96387.63;5008598;28;20520;-73
2022/03/30 01:08:12;;;;;;;26.08;14.00;;;9.60;99.90;;;9.19;100.00;96384.94;5005849;28;20086;-73
2022/03/30 01:10:39;;;;;;;23.60;13.07;;;9.70;99.90;;;9.16;100.00;96387.69;5003674;28;20046;-74
2022/03/30 01:13:07;;;;;;;21.00;11.90;;;9.70;99.90;;;9.43;100.00;96387.91;5005435;28;20046;-73
2022/03/30 01:15:36;;;;;;;23.85;12.85;;;9.70;99.90;;;9.42;100.00;96384.47;5006397;28;20050;-73
2022/03/30 01:18:03;;;;;;;22.73;14.32;;;9.70;99.90;;;9.37;100.00;96377.88;5004599;28;20088;-73
2022/03/30 01:20:31;;;;;;;25.77;16.27;;;9.70;99.90;;;9.30;100.00;96377.38;5007803;28;20125;-73
2022/03/30 01:23:02;;;;;;;25.95;13.52;;;9.70;99.90;;;9.55;100.00;96371.63;5020176;28;20168;-73
2022/03/30 01:25:30;;;;;;;19.98;12.63;;;9.80;99.90;;;9.47;100.00;96365.25;5005833;28;20080;-73
2022/03/30 01:27:58;;;;;;;25.08;15.10;;;9.80;99.90;;;9.34;100.00;96352.16;5004958;28;20168;-73
2022/03/30 01:33:10;;;;;;;33.10;17.63;;;9.60;99.90;;;9.09;100.00;96356.13;5005398;28;20050;-73
2022/03/30 01:35:40;;;;;;;23.05;14.95;;;9.50;99.90;;;9.08;100.00;96343.31;5002676;28;20192;-73
2022/03/30 01:38:07;;;;;;;34.33;17.65;;;9.50;99.90;;;9.11;100.00;96348.31;5001912;28;20437;-74
2022/03/30 01:40:35;;;;;;;21.63;13.70;;;9.50;99.90;;;9.17;100.00;96343.59;5005821;28;20121;-74
2022/03/30 01:43:02;;;;;;;31.13;16.08;;;9.50;99.90;;;9.20;100.00;96335.66;5004357;28;20130;-73
2022/03/30 01:45:30;;;;;;;20.92;12.85;;;9.50;99.90;;;9.34;100.00;96329.69;5001590;28;20060;-74
2022/03/30 01:48:00;;;;;;;24.00;12.57;;;9.60;99.90;;;9.39;100.00;96326.84;5020268;28;20133;-74
2022/03/30 01:50:29;;;;;;;18.95;12.73;;;9.60;99.90;;;9.41;100.00;96318.06;5017687;28;20772;-73
2022/03/30 01:52:56;;;;;;;28.45;16.27;;;9.70;99.90;;;9.39;100.00;96314.72;5002759;28;20050;-73
2022/03/30 01:55:23;;;;;;;36.42;19.63;;;9.70;99.90;;;9.47;100.00;96313.47;5004110;28;20068;-74
2022/03/30 01:57:51;;;;;;;33.00;20.92;;;9.70;99.90;;;9.33;100.00;96315.09;5007694;28;20072;-74
2022/03/30 02:00:19;;;;;;;38.00;21.73;;;9.60;99.90;;;9.31;100.00;96305.75;5005947;28;20141;-73
2022/03/30 02:02:47;;;;;;;36.67;21.85;;;9.60;99.90;;;9.27;100.00;96302.47;4988976;28;20042;-73
2022/03/30 02:05:16;;;;;;;30.67;19.02;;;9.60;99.90;;;9.31;100.00;96301.38;5018014;28;20062;-73
2022/03/30 02:07:43;;;;;;;30.50;16.92;;;9.60;99.90;;;9.31;100.00;96305.75;5001961;28;20042;-73
2022/03/30 02:10:10;;;;;;;30.98;19.02;;;9.60;99.90;;;9.37;100.00;96298.47;5003045;28;20057;-73
2022/03/30 02:12:38;;;;;;;25.17;15.38;;;9.50;99.90;;;9.35;100.00;96296.84;5005883;28;20487;-73
2022/03/30 02:15:07;;;;;;;26.90;16.02;;;9.50;99.90;;;9.40;100.00;96295.69;5006719;28;20046;-73
2022/03/30 02:17:34;;;;;;;30.08;17.92;;;9.60;99.90;;;9.36;100.00;96291.59;4991600;28;20657;-73
2022/03/30 02:20:02;;;;;;;32.10;16.88;;;9.60;99.90;;;9.48;100.00;96281.44;5002014;28;20061;-73
2022/03/30 02:22:29;;;;;;;28.73;16.75;;;9.60;99.90;;;9.42;100.00;96278.28;5003171;28;20508;-73
2022/03/30 02:24:57;;;;;;;35.15;20.02;;;9.60;99.90;;;9.42;100.00;96274.88;4999227;28;20057;-73
2022/03/30 02:27:24;;;;;;;38.25;18.90;;;9.60;99.90;;;9.34;100.00;96270.13;5004019;28;20084;-73
2022/03/30 02:29:54;;;;;;;31.92;20.63;;;9.60;99.90;;;9.34;100.00;96269.31;5010340;28;20423;-74
2022/03/30 02:32:21;;;;;;;32.67;19.17;;;9.60;99.90;;;9.43;100.00;96259.22;5004346;28;20049;-73
2022/03/30 02:34:49;;;;;;;35.30;21.35;;;9.60;99.90;;;9.19;100.00;96261.50;5017053;28;20564;-73
2022/03/30 02:37:17;;;;;;;31.73;18.48;;;9.60;99.90;;;8.98;100.00;96258.38;5006403;28;20450;-73
2022/03/30 02:39:45;;;;;;;32.97;21.67;;;9.60;99.90;;;8.84;100.00;96254.94;5007172;28;20100;-74
2022/03/30 02:42:12;;;;;;;31.55;19.38;;;9.50;99.90;;;9.14;100.00;96250.56;5007173;28;20370;-73
2022/03/30 02:44:39;;;;;;;26.33;17.17;;;9.50;99.90;;;9.25;100.00;96259.47;5003282;28;20058;-73
2022/03/30 02:47:07;;;;;;;32.80;21.35;;;9.50;99.90;;;9.01;100.00;96257.41;5000584;28;20129;-73
2022/03/30 02:49:35;;;;;;;31.85;19.85;;;9.40;99.90;;;8.96;100.00;96261.97;5006268;28;20143;-74
2022/03/30 02:52:04;;;;;;;26.70;16.65;;;9.40;99.90;;;8.94;100.00;96258.66;5002830;28;20530;-73
2022/03/30 02:54:31;;;;;;;32.83;20.15;;;9.40;99.90;;;8.46;100.00;96260.47;5004465;28;20042;-74
2022/03/30 02:56:59;;;;;;;28.90;19.92;;;9.40;99.90;;;8.48;100.00;96258.66;4998474;28;20085;-74
2022/03/30 02:59:26;;;;;;;34.28;19.10;;;9.40;99.90;;;8.43;100.00;96265.84;5000910;28;20054;-73
2022/03/30 03:01:54;;;;;;;26.40;15.98;;;9.30;99.90;;;8.69;100.00;96257.47;5005007;28;20725;-73
2022/03/30 03:04:22;;;;;;;29.48;20.58;;;9.20;99.90;;;8.58;100.00;96257.25;5003071;28;20470;-73
2022/03/30 03:06:49;;;;;;;29.42;18.00;;;9.20;99.90;;;8.48;100.00;96259.47;5016754;28;20041;-73
2022/03/30 03:09:17;;;;;;;39.65;23.42;;;9.20;99.90;;;8.41;100.00;96258.16;5007529;28;20057;-73
2022/03/30 03:11:44;;;;;;;28.30;18.77;;;9.20;99.90;;;8.50;100.00;96257.66;5005788;28;20050;-73
2022/03/30 03:14:11;;;;;;;33.10;18.83;;;9.20;99.90;;;8.79;100.00;96256.03;5004148;28;20452;-73
2022/03/30 03:16:38;;;;;;;28.40;18.75;;;9.20;99.90;;;8.76;100.00;96255.38;5009574;28;20089;-73
2022/03/30 03:19:05;;;;;;;42.22;22.20;;;9.20;99.90;;;8.44;100.00;96255.41;5000480;28;20128;-74
2022/03/30 03:21:32;;;;;;;26.27;18.50;;;9.20;99.90;;;8.86;100.00;96253.09;5005607;28;20464;-74
2022/03/30 03:23:59;;;;;;;32.55;19.15;;;9.20;99.90;;;8.71;100.00;96249.59;5004819;28;20073;-74
2022/03/30 03:26:26;;;;;;;30.52;19.10;;;9.10;99.90;;;8.97;100.00;96253.31;5015889;28;20038;-73
2022/03/30 03:28:53;;;;;;;28.90;16.48;;;9.20;99.90;;;9.03;100.00;96247.75;5003424;28;20528;-73
2022/03/30 03:31:20;;;;;;;28.20;18.20;;;9.20;99.90;;;9.04;100.00;96246.88;5007152;28;20124;-74
2022/03/30 03:33:47;;;;;;;26.73;18.60;;;9.30;99.90;;;9.08;100.00;96239.75;5002507;28;20042;-74
2022/03/30 03:36:14;;;;;;;31.00;18.70;;;9.30;99.90;;;8.75;100.00;96233.00;5001017;28;20141;-73
2022/03/30 03:38:41;;;;;;;33.60;17.70;;;9.30;99.90;;;8.85;100.00;96239.34;5005208;28;20073;-73
2022/03/30 03:41:08;;;;;;;30.10;17.75;;;9.30;99.90;;;8.77;100.00;96238.91;5005814;28;20056;-74
2022/03/30 03:43:36;;;;;;;32.70;18.30;;;9.30;99.90;;;8.90;100.00;96236.47;5004829;28;20125;-73
2022/03/30 03:46:04;;;;;;;29.90;16.77;;;9.20;99.90;;;8.92;100.00;96235.47;5007725;28;20132;-74
2022/03/30 03:48:32;;;;;;;36.25;20.25;;;9.20;99.90;;;8.66;100.00;96241.28;5004325;28;20058;-73
2022/03/30 03:50:59;;;;;;;30.00;19.15;;;9.20;99.90;;;8.58;100.00;96244.31;5001808;28;20163;-73
2022/03/30 03:53:26;;;;;;;32.22;17.98;;;9.20;99.90;;;8.53;100.00;96244.56;5003672;28;20611;-73
2022/03/30 03:55:53;;;;;;;32.83;19.02;;;9.10;99.90;;;8.74;100.00;96245.09;5003743;28;20136;-73
2022/03/30 03:58:20;;;;;;;35.15;16.48;;;9.00;99.90;;;8.91;100.00;96236.38;5006408;28;20059;-73
2022/03/30 04:00:48;;;;;;;32.00;18.92;;;9.00;99.90;;;8.92;100.00;96226.88;5001959;28;20125;-73
2022/03/30 04:03:15;;;;;;;34.63;18.38;;;9.10;99.90;;;9.09;100.00;96231.06;5004469;28;20512;-73
2022/03/30 04:05:42;;;;;;;31.75;16.42;;;9.20;99.90;;;9.25;100.00;96221.47;5003616;28;20420;-73
2022/03/30 04:08:10;;;;;;;26.08;14.90;;;9.30;99.90;;;9.19;100.00;96221.81;5003281;28;20132;-73
2022/03/30 04:10:38;;;;;;;23.55;14.52;;;9.50;99.90;;;9.21;100.00;96212.22;4999993;28;20499;-74
2022/03/30 04:13:06;;;;;;;27.30;15.93;;;9.50;99.90;;;9.32;100.00;96214.19;5005253;28;20149;-73
2022/03/30 04:15:34;;;;;;;28.33;15.25;;;9.50;99.90;;;9.33;100.00;96208.91;5001303;28;20086;-73
2022/03/30 04:18:03;;;;;;;29.27;17.10;;;9.50;99.90;;;9.32;100.00;96204.66;5007432;28;20073;-73
2022/03/30 04:20:31;;;;;;;34.38;21.00;;;9.50;99.90;;;9.00;100.00;96209.13;5003669;28;20105;-73
2022/03/30 04:23:00;;;;;;;33.63;21.33;;;9.40;99.90;;;8.94;100.00;96212.91;5016751;28;20085;-74
2022/03/30 04:25:27;;;;;;;31.40;19.50;;;9.30;99.90;;;8.99;100.00;96199.72;5009205;28;20411;-74
2022/03/30 04:27:54;;;;;;;37.53;20.95;;;9.40;99.90;;;9.00;100.00;96201.38;5024513;28;20056;-74
2022/03/30 04:30:22;;;;;;;37.03;21.45;;;9.40;99.90;;;8.90;100.00;96197.66;5005045;28;20140;-73
2022/03/30 04:32:49;;;;;;;34.83;21.75;;;9.30;99.90;;;8.99;100.00;96202.31;5023137;28;20050;-73
2022/03/30 04:35:22;;;;;;;28.30;18.17;;;9.30;99.90;;;8.88;100.00;96202.09;5004858;28;20054;-74
2022/03/30 04:37:49;;;;;;;38.95;20.85;;;9.30;99.90;;;8.91;100.00;96194.97;5007853;28;20056;-74
2022/03/30 04:40:16;;;;;;;35.53;19.77;;;9.30;99.90;;;8.98;100.00;96203.22;5007110;28;20056;-73
2022/03/30 04:42:43;;;;;;;33.65;20.88;;;9.30;99.90;;;9.05;100.00;96195.91;5003336;28;20520;-73
2022/03/30 04:45:10;;;;;;;31.67;20.17;;;9.30;99.90;;;8.99;100.00;96191.94;5007202;28;20100;-73
2022/03/30 04:47:37;;;;;;;30.70;18.73;;;9.30;99.90;;;9.07;100.00;96192.31;5002705;28;20481;-73
2022/03/30 04:50:04;;;;;;;30.40;19.60;;;9.30;99.90;;;8.87;100.00;96188.34;5008439;28;20137;-74
2022/03/30 04:52:32;;;;;;;30.40;19.48;;;9.30;99.90;;;9.06;100.00;96189.84;5008762;28;20586;-74
2022/03/30 04:54:59;;;;;;;31.55;18.88;;;9.30;99.90;;;9.00;100.00;96185.84;5003923;28;20704;-73
2022/03/30 04:57:26;;;;;;;34.38;22.70;;;9.30;99.90;;;8.69;100.00;96179.00;5008817;28;20076;-73
2022/03/30 04:59:53;;;;;;;39.00;21.80;;;9.20;99.90;;;8.65;100.00;96187.91;5005493;28;20412;-73
2022/03/30 05:02:20;;;;;;;31.25;19.92;;;9.20;99.90;;;8.64;100.00;96188.78;5005619;28;20281;-73
2022/03/30 05:04:47;;;;;;;32.58;21.73;;;9.10;99.90;;;8.61;100.00;96192.41;5007627;28;20116;-74
2022/03/30 05:07:14;;;;;;;35.83;22.27;;;9.10;99.90;;;8.52;100.00;96187.75;5004178;28;20073;-73
2022/03/30 05:09:41;;;;;;;40.40;22.77;;;9.00;99.90;;;8.43;100.00;96189.09;5005732;28;20062;-74
2022/03/30 05:12:09;;;;;;;38.28;22.40;;;9.00;99.90;;;8.45;100.00;96183.84;5004093;28;20070;-73
2022/03/30 05:14:36;;;;;;;43.45;24.30;;;9.00;99.90;;;8.40;100.00;96188.41;5000545;28;20068;-73
2022/03/30 05:17:04;;;;;;;44.30;25.30;;;8.90;99.90;;;8.20;100.00;96186.94;5003798;28;20065;-73
2022/03/30 05:19:31;;;;;;;40.47;24.20;;;8.80;99.90;;;8.23;100.00;96186.75;5002212;28;20046;-73
2022/03/30 05:21:58;;;;;;;42.35;26.00;;;8.70;99.90;;;7.96;100.00;96188.19;5009662;28;20084;-73
2022/03/30 05:24:25;;;;;;;43.58;26.48;;;8.60;99.90;;;7.91;100.00;96187.63;5002290;28;20046;-73
2022/03/30 05:26:55;;;;;;;49.40;27.40;;;8.60;99.90;;;8.02;100.00;96184.44;5000902;28;20072;-74
2022/03/30 05:29:22;;;;;;;48.75;28.45;;;8.50;99.90;;;7.90;100.00;96180.78;4997477;28;20695;-73
2022/03/30 05:31:50;;;;;;;44.72;26.90;;;8.50;99.90;;;7.94;100.00;96189.19;5002910;28;20177;-73
2022/03/30 05:34:37;;;;;;;46.90;28.02;;;8.50;99.90;;;7.79;100.00;96184.84;5019881;28;20050;-74
2022/03/30 05:37:04;;;;;;;43.58;27.67;;;8.40;99.90;;;7.74;100.00;96185.94;5006439;28;20125;-73
2022/03/30 05:39:31;;;;;;;47.25;28.35;;;8.40;99.90;;;7.95;100.00;96188.28;5002281;28;20145;-73
2022/03/30 05:41:58;;;;;;;45.72;26.42;;;8.40;99.90;;;7.99;100.00;96182.03;4997202;28;20129;-74
2022/03/30 05:44:25;;;;;;;44.10;28.00;;;8.40;99.90;;;7.90;100.00;96187.69;5000641;28;20567;-74
2022/03/30 05:46:52;;;;;;;47.28;28.80;;;8.30;99.90;;;7.81;100.00;96189.03;5007236;28;20468;-73
2022/03/30 05:49:19;;;;;;;42.63;27.83;;;8.20;99.90;;;7.71;100.00;96190.44;5003813;28;20701;-73
2022/03/30 05:51:46;;;;;;;54.75;30.27;;;8.20;99.90;;;7.63;100.00;96198.56;4997548;28;20534;-73
2022/03/30 05:54:13;;;;;;;50.42;28.67;;;8.20;99.90;;;7.61;100.00;96197.00;5007726;28;20244;-73
2022/03/30 05:59:35;;;;;;;50.72;31.88;;;8.10;99.90;;;7.37;100.00;96199.97;5002318;28;20660;-73
2022/03/30 06:02:06;;;;;;;58.53;32.72;;;8.00;99.90;;;7.35;100.00;96195.78;4997718;28;20292;-74
2022/03/30 06:04:34;;;;;;;60.90;33.95;;;7.90;99.90;;;7.41;100.00;96198.88;5003556;28;20054;-73
2022/03/30 06:07:01;;;;;;;61.20;35.47;;;7.90;99.90;;;7.26;100.00;96199.69;5003482;28;20180;-73
2022/03/30 06:09:29;;;;;;;64.32;34.05;;;7.80;99.90;;;7.23;100.00;96203.25;5002482;28;20513;-74
2022/03/30 06:12:08;;;;;;;60.40;34.75;;;7.80;99.90;;;7.24;99.70;96201.50;5005397;28;20054;-73
2022/03/30 06:14:35;;;;;;;59.20;34.58;;;7.70;99.90;;;7.18;98.79;96210.38;5007271;28;20065;-73
2022/03/30 06:17:04;;;;;;;66.95;35.20;;;7.70;99.90;;;7.06;98.13;96205.84;5002172;28;20077;-73
2022/03/30 06:19:33;;;;;;;54.70;31.67;;;7.70;99.90;;;7.11;97.78;96211.59;5000372;28;20098;-74
2022/03/30 06:22:05;;;;;;;60.78;34.92;;;7.60;99.90;;;7.11;97.15;96211.59;5011271;28;20043;-73
2022/03/30 06:24:39;;;;;;;62.27;34.60;;;7.60;99.90;;;7.12;96.55;96203.78;5003217;28;20050;-74
2022/03/30 06:27:06;;;;;;;;;;;7.50;99.90;;;7.15;96.08;96207.97;5007225;28;20312;-73
2022/03/30 06:29:35;;;;;;;65.20;34.10;;;7.50;99.90;;;7.01;95.77;96208.66;5017114;28;20412;-74
2022/03/30 06:32:03;;;;;;;56.80;34.30;;;7.50;99.90;;;6.99;95.78;96222.53;4999816;28;20550;-74
2022/03/30 06:34:32;;;;;;;58.38;35.13;;;7.60;99.90;;;6.88;95.67;96215.34;5002454;28;20089;-73
2022/03/30 06:36:59;;;;;;;58.35;34.10;;;7.50;99.90;;;6.88;95.58;96216.16;5004442;28;20070;-72
2022/03/30 06:39:26;;;;;;;57.08;33.97;;;7.30;99.90;;;6.82;95.39;96215.63;5003346;28;20074;-72
2022/03/30 06:41:53;;;;;;;61.05;35.00;;;7.30;99.90;;;6.66;95.39;96213.81;5020995;28;20442;-73
2022/03/30 06:44:20;;;;;;;55.17;32.20;;;7.20;99.90;;;6.77;95.07;96225.34;5008081;28;20065;-73
2022/03/30 06:46:48;;;;;;;53.35;32.60;;;7.30;99.90;;;6.82;94.99;96215.63;5002748;28;21605;-71
2022/03/30 06:49:15;;;;;;;47.97;29.75;;;7.20;99.90;;;6.89;94.87;96223.00;5005102;28;20081;-73
2022/03/30 06:51:42;;;;;;;55.17;31.52;;;7.30;99.90;;;7.03;94.91;96217.16;4997488;28;20125;-73
2022/03/30 06:54:09;;;;;;;45.72;28.92;;;7.40;99.90;;;7.16;95.05;96211.38;5003706;28;20133;-72
2022/03/30 06:56:36;;;;;;;45.58;28.77;;;7.40;99.90;;;7.17;95.50;96213.06;5000782;28;20084;-72
2022/03/30 06:59:03;;;;;;;54.50;32.13;;;7.40;99.90;;;7.03;96.36;96206.00;5004778;28;20050;-72
2022/03/30 07:01:34;;;;;;;50.45;30.80;;;7.50;99.90;;;7.06;97.04;96206.66;4998824;28;20591;-72
2022/03/30 07:04:03;;;;;;;48.90;31.27;;;7.40;99.90;;;6.95;97.72;96213.28;4998915;28;20499;-72
2022/03/30 07:06:30;;;;;;;51.17;31.40;;;7.40;99.90;;;7.02;97.94;96204.31;5001353;28;20103;-72
2022/03/30 07:11:42;;;;;;;54.55;34.20;;;7.40;99.90;;;6.91;98.68;96204.84;5003989;28;20072;-71
2022/03/30 07:14:09;;;;;;;59.55;35.65;;;7.40;99.90;;;6.96;98.64;96197.75;5001400;28;20100;-72
2022/03/30 07:16:36;;;;;;;52.10;32.75;;;7.40;99.90;;;7.17;98.46;96190.66;5004119;28;20047;-72
2022/03/30 07:19:03;;;;;;;54.80;33.05;;;7.50;99.90;;;7.00;98.68;96199.25;5005851;28;20107;-73
2022/03/30 07:21:30;;;;;;;55.65;33.90;;;7.60;99.90;;;7.08;98.67;96196.28;5003418;28;20050;-72
2022/03/30 07:23:57;;;;;;;57.90;35.35;;;7.50;99.90;;;6.85;99.22;96197.44;5003673;28;20073;-73
2022/03/30 07:26:25;;;;;;;56.60;35.08;;;7.40;99.90;;;6.86;99.02;96202.50;5001922;28;20058;-73
2022/03/30 07:28:52;;;;;;;55.63;33.22;;;7.40;99.90;;;7.00;98.41;96201.84;4999558;28;20042;-74
2022/03/30 07:31:19;;;;;;;66.80;37.78;;;7.40;99.90;;;6.80;98.41;96195.09;5008450;28;20129;-75
2022/03/30 07:33:46;;;;;;;73.88;39.95;;;7.40;99.90;;;6.72;98.16;96202.34;5006226;28;20081;-74
2022/03/30 07:36:13;;;;;;;61.08;37.83;;;7.30;99.90;;;6.76;97.65;96205.63;5000450;28;20053;-72
2022/03/30 07:38:40;;;;;;;70.32;40.15;;;7.30;99.90;;;6.73;97.17;96198.88;4997247;28;20096;-74
2022/03/30 07:41:07;;;;;;;73.25;41.63;;;7.20;99.90;;;6.56;97.06;96204.84;5001182;28;20058;-74
2022/03/30 07:43:34;;;;;;;71.03;39.33;;;7.10;99.90;;;6.58;96.66;96199.63;5001501;28;20121;-74
2022/03/30 07:46:01;;;;;;;65.95;39.83;;;7.10;99.90;;;6.70;96.19;96206.75;5004334;28;20054;-74
2022/03/30 07:48:29;;;;;;;71.07;41.20;;;7.20;99.90;;;6.58;96.21;96202.22;5000657;28;20647;-74
2022/03/30 07:50:56;;;;;;;73.32;38.65;;;7.10;99.90;;;6.63;96.01;96208.81;5000652;28;20555;-74
2022/03/30 07:53:29;;;;;;;69.60;41.58;;;7.10;99.90;;;6.61;95.84;96208.03;5004421;28;20049;-73
2022/03/30 07:55:57;;;;;;;72.50;40.13;;;7.20;99.90;;;6.66;95.64;96211.25;5002022;28;20084;-74
2022/03/30 07:58:25;;;;;;;65.00;37.92;;;7.20;99.90;;;6.81;95.49;96212.22;4993369;28;20138;-74
2022/03/30 08:00:53;;;;;;;75.00;42.88;;;7.20;99.90;;;6.77;95.37;96220.19;5002159;28;20038;-74
2022/03/30 08:03:21;;;;;;;67.35;39.63;;;7.20;99.90;;;6.89;95.28;96217.84;5007042;28;20041;-74
2022/03/30 08:05:48;;;;;;;61.38;38.20;;;7.40;99.90;;;6.85;95.48;96210.34;5004087;28;20568;-73
2022/03/30 08:08:15;;;;;;;67.00;38.33;;;7.40;99.90;;;6.97;95.38;96216.63;5002902;28;20058;-74
2022/03/30 08:10:42;;;;;;;71.03;39.97;;;7.50;99.90;;;6.94;95.41;96215.03;5007384;28;20399;-74
2022/03/30 08:13:12;;;;;;;63.75;38.28;;;7.50;99.90;;;7.11;95.24;96216.75;5008049;28;20046;-74
2022/03/30 08:15:42;;;;;;;66.88;38.90;;;7.50;99.90;;;7.10;95.39;96217.69;5006074;28;20100;-74
2022/03/30 08:18:10;;;;;;;63.92;39.83;;;7.60;99.90;;;6.99;95.44;96225.13;5008065;28;20054;-74
2022/03/30 08:23:23;;;;;;;67.72;39.28;;;7.60;99.90;;;7.11;95.27;96217.59;4999914;28;20164;-72
2022/03/30 08:25:50;;;;;;;62.20;37.25;;;7.60;99.90;;;7.19;95.23;96226.72;5004816;28;20086;-73
2022/03/30 08:28:17;;;;;;;67.38;36.30;;;7.70;99.90;;;7.19;95.26;96224.97;5001157;28;20089;-74
2022/03/30 08:30:44;;;;;;;61.00;35.53;;;7.70;99.90;;;6.99;95.41;96218.22;5004962;28;20165;-73
2022/03/30 08:33:11;;;;;;;52.25;32.70;;;7.70;99.90;;;6.95;95.51;96224.44;5004546;28;20081;-73
2022/03/30 08:35:39;;;;;;;56.95;35.72;;;7.60;99.90;;;6.89;95.54;96230.75;5001359;28;20058;-73
2022/03/30 08:38:06;;;;;;;57.25;35.72;;;7.60;99.90;;;6.89;95.54;96224.75;5000387;28;20061;-73
2022/03/30 08:40:34;;;;;;;62.45;35.97;;;7.50;99.90;;;6.90;95.65;96224.66;5010930;28;20053;-73
2022/03/30 08:43:01;;;;;;;54.78;35.05;;;7.50;99.90;;;6.94;95.58;96221.94;5005301;28;20046;-73
2022/03/30 08:45:28;;;;;;;58.35;35.47;;;7.50;99.90;;;7.15;95.44;96222.63;5004975;28;20134;-73
2022/03/30 08:47:55;;;;;;;57.50;33.63;;;7.70;99.90;;;7.05;95.80;96219.66;5022884;28;20074;-73
2022/03/30 08:50:23;;;;;;;58.25;35.88;;;7.60;99.90;;;7.15;95.75;96220.03;5007798;28;20500;-72
2022/03/30 08:52:55;;;;;;;58.75;34.90;;;7.70;99.90;;;7.27;95.85;96219.41;5001458;28;20046;-72
2022/03/30 08:55:23;;;;;;;49.67;32.65;;;7.80;99.90;;;7.24;96.12;96220.38;5005670;28;20046;-72
2022/03/30 08:57:50;;;;;;;55.60;33.28;;;7.80;99.90;;;7.05;96.49;96217.91;5005102;28;20414;-73
2022/03/30 09:00:20;;;;;;;54.38;32.30;;;7.70;99.90;;;7.14;96.40;96211.47;5004290;28;20082;-73
2022/03/30 09:02:55;;;;;;;53.05;32.40;;;7.80;99.90;;;7.21;96.42;96217.16;5005985;28;20050;-73
2022/03/30 09:05:25;;;;;;;52.38;32.25;;;7.80;99.90;;;7.13;96.57;96214.94;5002256;28;20053;-73
2022/03/30 09:08:06;;;;;;;51.38;32.05;;;7.80;99.90;;;6.96;96.81;96220.13;5005986;28;20053;-73
2022/03/30 09:10:35;;;;;;;55.63;33.03;;;7.60;99.90;;;6.93;96.90;96218.50;5004043;28;20141;-73
2022/03/30 09:13:05;;;;;;;52.55;31.63;;;7.60;99.90;;;7.01;96.65;96223.31;5010702;28;20134;-73
2022/03/30 09:15:35;;;;;;;43.85;28.40;;;7.60;99.90;;;7.04;96.75;96221.38;5003228;28;20061;-73
2022/03/30 09:18:06;;;;;;;50.55;29.60;;;7.70;99.90;;;7.02;96.89;96212.06;5007161;28;20080;-73
2022/03/30 09:20:41;;;;;;;52.95;31.02;;;7.70;99.90;;;7.25;96.46;96222.06;5004850;28;20567;-73
2022/03/30 09:23:10;;;;;;;46.38;28.88;;;7.80;99.90;;;7.45;96.45;96220.19;5000355;28;20052;-73
2022/03/30 09:25:48;;;;;;;45.45;28.75;;;7.90;99.90;;;7.25;97.00;96222.06;4998693;28;20050;-73
2022/03/30 09:28:18;;;;;;;41.17;27.13;;;7.90;99.90;;;7.43;96.90;96225.44;5003079;28;20131;-73
2022/03/30 09:30:47;;;;;;;50.38;27.70;;;8.00;99.90;;;7.34;97.58;96220.75;5004429;28;20045;-73
2022/03/30 09:33:18;;;;;;;43.95;29.55;;;7.90;99.90;;;7.26;97.83;96226.31;5007558;28;20041;-73
2022/03/30 09:35:46;;;;;;;42.35;27.42;;;7.90;99.90;;;7.12;98.20;96221.03;5017682;28;20440;-73
2022/03/30 09:38:20;;;;;;;47.38;28.00;;;7.80;99.90;;;7.12;98.16;96216.69;5020740;28;20057;-74
2022/03/30 09:40:50;;;;;;;46.45;30.02;;;7.80;99.90;;;7.25;97.93;96221.22;5002100;28;20052;-72
2022/03/30 09:43:30;;;;;;;46.30;29.85;;;7.90;99.90;;;7.19;98.22;96218.97;5004310;28;20566;-73
2022/03/30 09:46:08;;;;;;;51.47;31.92;;;7.80;99.90;;;7.19;98.52;96212.06;5001964;28;20572;-73
2022/03/30 09:48:53;;;;;;;48.75;29.70;;;7.80;99.90;;;7.24;98.48;96215.22;5005128;28;20047;-73
2022/03/30 09:51:25;;;;;;;47.50;29.85;;;7.80;99.90;;;7.29;98.40;96208.06;5007849;28;20080;-74
2022/03/30 09:53:52;;;;;;;48.72;30.33;;;7.90;99.90;;;7.38;98.68;96214.53;5008088;28;20078;-73
2022/03/30 09:56:25;;;;;;;47.63;30.20;;;7.90;99.90;;;7.29;98.90;96218.41;5001492;28;20088;-73
2022/03/30 09:59:01;;;;;;;50.28;30.90;;;7.90;99.90;;;7.21;99.35;96209.41;5001742;28;20046;-73
2022/03/30 10:01:33;;;;;;;70.70;44.22;;;7.90;99.90;;;7.39;99.03;96215.34;5001442;28;20149;-72
2022/03/30 10:04:04;;;;;;;86.32;58.88;;;7.90;99.90;;;7.47;99.44;96214.03;5005104;28;20092;-73
2022/03/30 10:06:40;;;;;;;59.70;36.22;;;8.00;99.90;;;7.47;99.95;96216.63;4999291;28;20058;-73
2022/03/30 10:09:13;;;;;;;51.95;31.67;;;8.00;99.90;;;7.70;99.93;96205.09;5018717;28;20049;-73
2022/03/30 10:11:44;;;;;;;50.25;31.40;;;8.10;99.90;;;7.69;100.00;96211.19;5016216;28;20132;-73
2022/03/30 10:14:12;;;;;;;48.20;29.50;;;8.20;99.90;;;7.60;100.00;96201.34;4999623;28;20471;-73
2022/03/30 10:16:43;;;;;;;50.63;32.70;;;8.20;99.90;;;7.59;100.00;96201.41;5002229;28;20569;-73
2022/03/30 10:19:11;;;;;;;48.47;32.00;;;8.10;99.90;;;7.80;100.00;96199.44;5002367;28;20129;-73
2022/03/30 10:22:13;;;;;;;85.35;63.70;;;8.20;99.90;;;7.83;100.00;96183.78;5005285;28;20133;-72
2022/03/30 10:24:48;;;;;;;57.50;38.25;;;8.30;99.90;;;7.70;100.00;96187.00;4998708;28;20125;-73
2022/03/30 10:27:47;;;;;;;67.72;43.15;;;8.20;99.90;;;7.51;100.00;96183.75;5000301;28;20058;-73
2022/03/30 10:30:24;;;;;;;78.50;48.10;;;8.20;99.90;;;7.47;100.00;96183.06;5004959;28;20081;-73
2022/03/30 10:33:00;;;;;;;51.70;31.83;;;8.20;99.90;;;7.30;100.00;96189.13;5002420;28;20062;-73